createdAt,value
2022-10-01T00:01:00.492Z,100245.6
2022-10-01T00:02:00.745Z,100247.17
2022-10-01T00:03:01.997Z,100241.45
2022-10-01T00:04:01.518Z,100243.03
2022-10-01T00:05:01.627Z,100238.52
2022-10-01T00:06:07.266Z,100240.67
2022-10-01T00:07:05.335Z,100238.39
2022-10-01T00:08:05.409Z,100242.45
2022-10-01T00:09:05.654Z,100242.5
2022-10-01T00:10:06.442Z,100241.94
2022-10-01T00:11:14.717Z,100239.91
2022-10-01T00:12:08.742Z,100237.3
2022-10-01T00:13:08.035Z,100238.44
2022-10-01T00:14:08.132Z,100238.05
2022-10-01T00:15:10.703Z,100238.77
2022-10-01T00:16:13.823Z,100240.36
2022-10-01T00:17:11.432Z,100234.41
2022-10-01T00:18:11.641Z,100237.12
2022-10-01T00:19:13.693Z,100236.11
2022-10-01T00:20:14.574Z,100234.99
2022-10-01T00:21:18.240Z,100235.85
2022-10-01T00:22:16.019Z,100233.73
2022-10-01T00:23:15.924Z,100234.06
2022-10-01T00:24:16.390Z,100232.84
2022-10-01T00:25:17.119Z,100231.33
2022-10-01T00:26:22.861Z,100232.98
2022-10-01T00:27:20.604Z,100229.84
2022-10-01T00:28:20.710Z,100229.25
2022-10-01T00:29:21.134Z,100226.3
2022-10-01T00:30:21.355Z,100228.77
2022-10-01T00:31:22.446Z,100230.02
2022-10-01T00:32:22.388Z,100235.02
2022-10-01T00:33:22.394Z,100231.41
2022-10-01T00:34:22.918Z,100232.94
2022-10-01T00:35:23.087Z,100230.38
2022-10-01T00:36:23.433Z,100229.14
2022-10-01T00:37:23.959Z,100230.11
2022-10-01T00:38:24.245Z,100230.66
2022-10-01T00:39:24.627Z,100230.3
2022-10-01T00:40:24.860Z,100232.05
2022-10-01T00:41:25.117Z,100230.33
2022-10-01T00:42:27.067Z,100226.68
2022-10-01T00:43:34.485Z,100228.88
2022-10-01T00:44:35.691Z,100231.05
2022-10-01T00:45:29.321Z,100227.16
2022-10-01T00:47:41.335Z,100227.08
2022-10-01T00:48:42.256Z,100224.23
2022-10-01T00:49:37.453Z,100227.42
2022-10-01T00:50:36.637Z,100221.53
2022-10-01T00:51:40.187Z,100220.06
2022-10-01T00:52:41.109Z,100217.92
2022-10-01T00:53:39.026Z,100217.5
2022-10-01T00:55:46.395Z,100216.69
2022-10-01T00:56:44.892Z,100218.81
2022-10-01T00:57:44.885Z,100214.48
2022-10-01T00:58:44.686Z,100216.45
2022-10-01T00:59:46.417Z,100215.32
2022-10-01T01:00:45.933Z,100212.52
2022-10-01T01:01:45.679Z,100211.88
2022-10-01T01:02:45.943Z,100215.41
2022-10-01T01:03:47.093Z,100212.39
2022-10-01T01:04:46.543Z,100210.89
2022-10-01T01:05:46.772Z,100211.9
2022-10-01T01:06:53.546Z,100210.02
2022-10-01T01:07:53.657Z,100214.22
2022-10-01T01:08:51.784Z,100216.69
2022-10-01T01:09:54.069Z,100215.62
2022-10-01T01:17:12.848Z,100221.78
2022-10-01T01:22:23.642Z,100223.06
2022-10-01T01:28:47.839Z,100218.64
2022-10-01T01:30:45.372Z,100214.84
2022-10-01T01:31:47.145Z,100215.61
2022-10-01T01:33:50.035Z,100215.3
2022-10-01T01:34:51.580Z,100215.95
2022-10-01T01:38:01.126Z,100217.48
2022-10-01T01:39:02.752Z,100218.25
2022-10-01T01:40:01.840Z,100214.89
2022-10-01T01:41:03.282Z,100216.84
2022-10-01T01:42:06.563Z,100214.73
2022-10-01T01:43:07.301Z,100214.47
2022-10-01T01:44:10.062Z,100216.94
2022-10-01T01:45:11.501Z,100216.87
2022-10-01T01:46:12.690Z,100218.78
2022-10-01T01:47:13.150Z,100217.16
2022-10-01T01:48:11.526Z,100220.7
2022-10-01T01:49:12.135Z,100221.87
2022-10-01T01:50:14.618Z,100220.11
2022-10-01T01:52:18.196Z,100219.27
2022-10-01T01:53:17.357Z,100219.06
2022-10-01T01:54:18.738Z,100218.97
2022-10-01T01:55:17.945Z,100216.7
2022-10-01T01:56:18.436Z,100221.13
2022-10-01T01:57:20.386Z,100221.3
2022-10-01T01:58:20.198Z,100222.05
2022-10-01T01:59:19.678Z,100222.46
2022-10-01T02:00:19.585Z,100226.05
2022-10-01T02:03:25.654Z,100220.19
2022-10-01T02:04:27.200Z,100217.77
2022-10-01T02:23:15.845Z,100208.34
2022-10-01T02:25:18.629Z,100214.28
2022-10-01T02:26:20.838Z,100214.55
2022-10-01T02:28:23.640Z,100215.55
2022-10-01T02:29:23.214Z,100207.41
2022-10-01T02:30:21.945Z,100213.67
2022-10-01T02:31:24.038Z,100209.5
2022-10-01T02:32:22.688Z,100214.05
2022-10-01T02:33:27.483Z,100210.33
2022-10-01T02:34:29.057Z,100212.75
2022-10-01T02:35:30.866Z,100212.89
2022-10-01T02:36:32.015Z,100207.38
2022-10-01T02:37:29.656Z,100207.36
2022-10-01T02:38:31.818Z,100204.55
2022-10-01T02:39:32.660Z,100206.52
2022-10-01T02:40:35.525Z,100203.34
2022-10-01T02:41:36.509Z,100204.08
2022-10-01T02:42:36.258Z,100204.34
2022-10-01T02:44:40.666Z,100201.32
2022-10-01T02:45:41.214Z,100200.83
2022-10-01T02:48:42.527Z,100198.75
2022-10-01T02:49:43.046Z,100196.94
2022-10-01T02:52:53.115Z,100199.73
2022-10-01T02:53:56.800Z,100194.08
2022-10-01T02:55:59.278Z,100191.19
2022-10-01T02:56:59.190Z,100189.64
2022-10-01T02:57:57.755Z,100186.75
2022-10-01T02:58:57.757Z,100189.91
2022-10-01T03:00:01.148Z,100191.9
2022-10-01T03:00:58.698Z,100188.83
2022-10-01T03:01:59.154Z,100189.25
2022-10-01T03:02:59.581Z,100191.06
2022-10-01T03:03:59.625Z,100186.38
2022-10-01T03:05:00.456Z,100186.54
2022-10-01T03:06:00.355Z,100187.05
2022-10-01T03:07:00.678Z,100185.7
2022-10-01T03:08:01.507Z,100183.63
2022-10-01T03:09:01.401Z,100180.94
2022-10-01T03:10:03.041Z,100180.05
2022-10-01T03:11:02.029Z,100184.09
2022-10-01T03:12:03.018Z,100183.17
2022-10-01T03:13:02.896Z,100185.66
2022-10-01T03:14:03.045Z,100181.72
2022-10-01T03:15:04.314Z,100184.42
2022-10-01T03:16:04.076Z,100184.08
2022-10-01T03:17:04.098Z,100183.53
2022-10-01T03:18:04.748Z,100178.38
2022-10-01T03:19:05.375Z,100176.98
2022-10-01T03:20:06.908Z,100176.67
2022-10-01T03:21:05.576Z,100177.41
2022-10-01T03:22:06.520Z,100173.88
2022-10-01T03:23:06.411Z,100174.52
2022-10-01T03:24:07.146Z,100174.25
2022-10-01T03:25:07.721Z,100170.3
2022-10-01T03:26:07.555Z,100173.34
2022-10-01T03:27:07.976Z,100173.74
2022-10-01T03:28:08.273Z,100172.84
2022-10-01T03:29:08.545Z,100172.87
2022-10-01T03:30:10.453Z,100173.69
2022-10-01T03:31:11.079Z,100177.41
2022-10-01T03:32:09.852Z,100179.38
2022-10-01T03:33:09.968Z,100176.01
2022-10-01T03:34:10.328Z,100179.45
2022-10-01T03:35:10.691Z,100180.1
2022-10-01T03:36:11.175Z,100183.63
2022-10-01T03:37:11.621Z,100188.83
2022-10-01T03:38:11.695Z,100185.45
2022-10-01T03:39:12.015Z,100187.76
2022-10-01T03:40:12.365Z,100184.91
2022-10-01T03:41:12.671Z,100189.59
2022-10-01T03:42:13.193Z,100190.03
2022-10-01T03:43:13.503Z,100193.3
2022-10-01T03:44:13.893Z,100194.38
2022-10-01T03:45:14.557Z,100189.2
2022-10-01T03:46:14.909Z,100186.62
2022-10-01T03:47:14.918Z,100187.1
2022-10-01T03:48:15.385Z,100182.01
2022-10-01T03:49:15.909Z,100183.01
2022-10-01T03:50:16.221Z,100180.15
2022-10-01T03:51:19.800Z,100182.2
2022-10-01T03:52:17.553Z,100181.62
2022-10-01T03:53:17.976Z,100179.39
2022-10-01T03:54:18.179Z,100183.48
2022-10-01T03:55:18.938Z,100183.92
2022-10-01T03:56:18.933Z,100183.44
2022-10-01T03:57:20.268Z,100185.11
2022-10-01T03:58:21.211Z,100182.67
2022-10-01T03:59:20.863Z,100181.41
2022-10-01T04:00:20.919Z,100179.47
2022-10-01T04:01:20.870Z,100179.86
2022-10-01T04:02:21.547Z,100177.88
2022-10-01T04:03:22.481Z,100177.41
2022-10-01T04:04:22.170Z,100176.98
2022-10-01T04:05:22.555Z,100175.17
2022-10-01T04:06:22.677Z,100176.34
2022-10-01T04:07:22.789Z,100175.5
2022-10-01T04:08:24.497Z,100177.09
2022-10-01T04:09:23.565Z,100175.12
2022-10-01T04:10:24.133Z,100171.85
2022-10-01T04:11:24.180Z,100177.78
2022-10-01T04:12:24.862Z,100173.49
2022-10-01T04:13:25.584Z,100171.9
2022-10-01T04:14:25.386Z,100173.66
2022-10-01T04:15:26.007Z,100173.23
2022-10-01T04:16:26.274Z,100175.73
2022-10-01T04:17:27.344Z,100172.67
2022-10-01T04:18:26.989Z,100171.86
2022-10-01T04:19:29.414Z,100172.14
2022-10-01T04:20:27.916Z,100172.03
2022-10-01T04:21:28.006Z,100169.17
2022-10-01T04:22:28.107Z,100165.78
2022-10-01T04:23:28.722Z,100171.53
2022-10-01T04:24:29.150Z,100173.03
2022-10-01T04:25:29.598Z,100166.84
2022-10-01T04:26:29.674Z,100169.07
2022-10-01T04:27:30.075Z,100169.08
2022-10-01T04:28:31.446Z,100168.98
2022-10-01T04:29:30.703Z,100166.23
2022-10-01T04:30:37.178Z,100168.47
2022-10-01T04:31:35.750Z,100168.32
2022-10-01T04:32:35.531Z,100166.27
2022-10-01T04:33:35.339Z,100162.34
2022-10-01T04:34:35.654Z,100161.34
2022-10-01T04:35:36.064Z,100159.95
2022-10-01T04:36:36.487Z,100156.72
2022-10-01T04:37:37.177Z,100155.02
2022-10-01T04:38:37.107Z,100150.8
2022-10-01T04:39:37.624Z,100153.49
2022-10-01T04:40:38.354Z,100151.52
2022-10-01T04:41:38.738Z,100149.56
2022-10-01T04:42:42.056Z,100149.75
2022-10-01T04:43:39.434Z,100153.22
2022-10-01T04:44:40.229Z,100153.04
2022-10-01T04:45:40.404Z,100151.35
2022-10-01T04:46:40.583Z,100154.62
2022-10-01T04:47:51.094Z,100152.98
2022-10-01T04:48:43.524Z,100156.21
2022-10-01T04:49:44.055Z,100159.25
2022-10-01T04:50:44.765Z,100163.55
2022-10-01T04:51:44.772Z,100161.89
2022-10-01T04:52:45.512Z,100163.62
2022-10-01T04:53:45.312Z,100165.92
2022-10-01T04:54:45.651Z,100162.86
2022-10-01T04:55:46.040Z,100163.39
2022-10-01T04:56:46.452Z,100162.66
2022-10-01T04:57:46.865Z,100158.5
2022-10-01T04:58:47.077Z,100163.42
2022-10-01T04:59:50.564Z,100157.14
2022-10-01T05:00:49.165Z,100161.27
2022-10-01T05:01:48.564Z,100158.81
2022-10-01T05:02:49.868Z,100156.25
2022-10-01T05:03:48.949Z,100157.14
2022-10-01T05:04:49.582Z,100154.86
2022-10-01T05:05:49.666Z,100156.02
2022-10-01T05:06:50.405Z,100158.72
2022-10-01T05:07:50.841Z,100159.39
2022-10-01T05:08:51.953Z,100158.56
2022-10-01T05:09:51.256Z,100160.63
2022-10-01T05:10:51.653Z,100161.2
2022-10-01T05:11:51.885Z,100160.2
2022-10-01T05:12:52.193Z,100157.89
2022-10-01T05:13:52.918Z,100162.34
2022-10-01T05:14:53.984Z,100163.98
2022-10-01T05:15:53.394Z,100162.74
2022-10-01T05:16:53.854Z,100161.2
2022-10-01T05:17:54.032Z,100164.02
2022-10-01T05:18:54.474Z,100164.75
2022-10-01T05:19:54.862Z,100167.66
2022-10-01T05:20:55.015Z,100169.33
2022-10-01T05:21:55.826Z,100172.03
2022-10-01T05:22:55.872Z,100169.82
2022-10-01T05:23:56.254Z,100171.23
2022-10-01T05:24:56.565Z,100172.23
2022-10-01T05:25:56.883Z,100172.83
2022-10-01T05:26:57.192Z,100169.3
2022-10-01T05:28:00.959Z,100165.77
2022-10-01T05:28:59.050Z,100166.69
2022-10-01T05:29:58.963Z,100165.2
2022-10-01T05:31:03.499Z,100163.29
2022-10-01T05:32:01.575Z,100160.73
2022-10-01T05:33:03.586Z,100162.31
2022-10-01T05:34:01.951Z,100163.17
2022-10-01T05:35:02.578Z,100165.81
2022-10-01T05:36:03.456Z,100161.62
2022-10-01T05:37:03.300Z,100160.49
2022-10-01T05:38:03.308Z,100157.53
2022-10-01T05:39:04.023Z,100155.7
2022-10-01T05:40:04.544Z,100155.54
2022-10-01T05:41:05.472Z,100152.42
2022-10-01T05:42:06.517Z,100150.97
2022-10-01T05:43:05.025Z,100149.83
2022-10-01T05:44:05.606Z,100148.32
2022-10-01T05:45:06.727Z,100153.1
2022-10-01T05:46:06.453Z,100147.6
2022-10-01T05:47:07.054Z,100149.64
2022-10-01T05:48:09.054Z,100149.97
2022-10-01T05:49:07.265Z,100146.76
2022-10-01T05:50:08.599Z,100147.59
2022-10-01T05:51:08.475Z,100147.11
2022-10-01T05:52:09.415Z,100145.88
2022-10-01T05:53:11.303Z,100141.59
2022-10-01T05:54:09.399Z,100142.33
2022-10-01T05:55:09.548Z,100144.78
2022-10-01T05:56:10.085Z,100142.23
2022-10-01T05:57:10.700Z,100144.14
2022-10-01T05:58:12.563Z,100141.25
2022-10-01T05:59:11.024Z,100141.91
2022-10-01T06:00:12.356Z,100140.1
2022-10-01T06:01:11.649Z,100139.7
2022-10-01T06:02:12.264Z,100135.98
2022-10-01T06:03:12.905Z,100135.41
2022-10-01T06:04:13.010Z,100131.34
2022-10-01T06:05:13.115Z,100129.45
2022-10-01T06:06:14.249Z,100126.2
2022-10-01T06:07:14.035Z,100125.77
2022-10-01T06:08:14.566Z,100126.11
2022-10-01T06:09:15.083Z,100119.27
2022-10-01T06:10:16.322Z,100119.22
2022-10-01T06:11:15.612Z,100116.16
2022-10-01T06:12:19.680Z,100115.91
2022-10-01T06:13:17.462Z,100119.55
2022-10-01T06:14:18.504Z,100117.22
2022-10-01T06:15:19.028Z,100121.47
2022-10-01T06:16:18.780Z,100119.02
2022-10-01T06:17:19.326Z,100125.42
2022-10-01T06:18:19.784Z,100121.11
2022-10-01T06:19:20.171Z,100125.02
2022-10-01T06:20:20.575Z,100124.01
2022-10-01T06:21:20.552Z,100124.99
2022-10-01T06:22:21.039Z,100123.5
2022-10-01T06:23:21.442Z,100124.81
2022-10-01T06:24:22.240Z,100123.75
2022-10-01T06:25:22.491Z,100128.53
2022-10-01T06:26:22.597Z,100121.78
2022-10-01T06:27:23.709Z,100124.68
2022-10-01T06:28:23.198Z,100121.61
2022-10-01T06:29:23.637Z,100121.5
2022-10-01T06:30:28.427Z,100120.98
2022-10-01T06:31:26.052Z,100123.95
2022-10-01T06:32:26.146Z,100123.86
2022-10-01T06:33:26.913Z,100125.52
2022-10-01T06:34:27.121Z,100123.95
2022-10-01T06:35:27.436Z,100121.22
2022-10-01T06:36:27.644Z,100124.44
2022-10-01T06:37:28.265Z,100124.02
2022-10-01T06:38:28.575Z,100125.34
2022-10-01T06:39:29.059Z,100128.58
2022-10-01T06:40:30.347Z,100128.94
2022-10-01T06:41:29.836Z,100126.93
2022-10-01T06:42:30.145Z,100126
2022-10-01T06:43:31.584Z,100131.25
2022-10-01T06:44:30.775Z,100132.46
2022-10-01T06:45:31.765Z,100133.81
2022-10-01T06:46:31.611Z,100132.12
2022-10-01T06:47:32.033Z,100131.03
2022-10-01T06:48:33.762Z,100128.98
2022-10-01T06:49:32.647Z,100127.28
2022-10-01T06:50:34.693Z,100126.3
2022-10-01T06:51:33.784Z,100128.52
2022-10-01T06:52:33.796Z,100126.44
2022-10-01T06:53:34.203Z,100126.22
2022-10-01T06:54:34.709Z,100123.84
2022-10-01T06:55:36.988Z,100119.94
2022-10-01T06:56:35.710Z,100124.52
2022-10-01T06:57:35.787Z,100129.7
2022-10-01T06:58:36.609Z,100129.67
2022-10-01T06:59:36.919Z,100129.14
2022-10-01T07:00:37.583Z,100125.78
2022-10-01T07:01:37.949Z,100124.83
2022-10-01T07:02:37.859Z,100125.59
2022-10-01T07:03:38.164Z,100124.11
2022-10-01T07:04:38.801Z,100126.67
2022-10-01T07:05:39.726Z,100125.16
2022-10-01T07:06:39.351Z,100126.3
2022-10-01T07:07:39.489Z,100123.19
2022-10-01T07:08:40.027Z,100125.23
2022-10-01T07:09:40.489Z,100121.36
2022-10-01T07:10:41.490Z,100123.3
2022-10-01T07:11:41.503Z,100118.49
2022-10-01T07:12:41.612Z,100119.44
2022-10-01T07:13:42.017Z,100112.92
2022-10-01T07:14:42.232Z,100112.96
2022-10-01T07:15:43.472Z,100110.8
2022-10-01T07:16:43.638Z,100105.5
2022-10-01T07:17:45.378Z,100103.83
2022-10-01T07:18:43.755Z,100106.95
2022-10-01T07:19:44.072Z,100102.61
2022-10-01T07:20:44.627Z,100102.7
2022-10-01T07:21:48.438Z,100100.12
2022-10-01T07:22:47.306Z,100096.14
2022-10-01T07:23:48.641Z,100096.58
2022-10-01T07:24:47.016Z,100099.91
2022-10-01T07:25:47.137Z,100100.27
2022-10-01T07:26:47.645Z,100098.59
2022-10-01T07:27:48.192Z,100097.45
2022-10-01T07:28:48.574Z,100096.19
2022-10-01T07:29:48.728Z,100098.86
2022-10-01T07:31:57.898Z,100098.66
2022-10-01T07:32:55.762Z,100092.89
2022-10-01T07:33:58.907Z,100095.81
2022-10-01T07:34:56.718Z,100086.54
2022-10-01T07:36:01.014Z,100087.62
2022-10-01T07:36:58.889Z,100088.64
2022-10-01T07:37:59.182Z,100087.2
2022-10-01T07:38:59.495Z,100087.45
2022-10-01T07:40:03.089Z,100087.53
2022-10-01T07:41:04.619Z,100086.5
2022-10-01T07:42:04.938Z,100082.7
2022-10-01T07:43:04.848Z,100084.89
2022-10-01T07:44:05.571Z,100085.77
2022-10-01T07:45:07.020Z,100085.48
2022-10-01T07:46:06.447Z,100083.65
2022-10-01T07:47:06.579Z,100083.84
2022-10-01T07:48:07.230Z,100085.08
2022-10-01T07:49:09.390Z,100082.48
2022-10-01T07:50:08.369Z,100081.67
2022-10-01T07:51:08.433Z,100082.71
2022-10-01T07:52:13.113Z,100082.96
2022-10-01T07:53:11.693Z,100081.55
2022-10-01T07:54:12.350Z,100080.85
2022-10-01T07:55:12.011Z,100078.85
2022-10-01T07:56:12.416Z,100082.59
2022-10-01T07:57:12.920Z,100080.6
2022-10-01T07:58:13.452Z,100084.95
2022-10-01T07:59:13.451Z,100079.44
2022-10-01T08:00:14.421Z,100082.62
2022-10-01T08:01:14.583Z,100081.17
2022-10-01T08:02:16.381Z,100077.96
2022-10-01T08:03:15.113Z,100081.48
2022-10-01T08:04:15.535Z,100079.53
2022-10-01T08:05:16.151Z,100075.39
2022-10-01T08:06:16.976Z,100077.02
2022-10-01T08:07:16.675Z,100077
2022-10-01T08:08:17.296Z,100079.22
2022-10-01T08:09:17.517Z,100074.75
2022-10-01T08:10:20.076Z,100076.54
2022-10-01T08:11:18.347Z,100071.27
2022-10-01T08:12:18.865Z,100070.53
2022-10-01T08:13:19.357Z,100067.48
2022-10-01T08:14:19.801Z,100067.45
2022-10-01T08:15:19.995Z,100063.77
2022-10-01T08:16:20.723Z,100063.29
2022-10-01T08:17:20.791Z,100064.8
2022-10-01T08:18:22.685Z,100062.62
2022-10-01T08:19:22.105Z,100062.08
2022-10-01T08:20:22.161Z,100062.44
2022-10-01T08:21:22.499Z,100062.2
2022-10-01T08:22:22.878Z,100059.5
2022-10-01T08:23:23.536Z,100064.28
2022-10-01T08:24:23.848Z,100054.62
2022-10-01T08:25:24.276Z,100054.7
2022-10-01T08:26:24.795Z,100052.86
2022-10-01T08:27:26.324Z,100051.03
2022-10-01T08:28:25.384Z,100051.95
2022-10-01T08:29:26.252Z,100049.94
2022-10-01T08:30:27.699Z,100050.67
2022-10-01T08:31:27.077Z,100053.47
2022-10-01T08:32:27.383Z,100050.19
2022-10-01T08:33:27.589Z,100050.88
2022-10-01T08:34:28.121Z,100052.58
2022-10-01T08:35:29.246Z,100050.98
2022-10-01T08:36:28.970Z,100046.7
2022-10-01T08:37:29.990Z,100049.58
2022-10-01T08:38:29.685Z,100049.05
2022-10-01T08:39:30.195Z,100046.28
2022-10-01T08:40:32.556Z,100047.39
2022-10-01T08:43:41.398Z,100044.59
2022-10-01T08:44:44.105Z,100042.3
2022-10-01T08:45:48.250Z,100044.78
2022-10-01T08:46:47.854Z,100033.22
2022-10-01T08:58:23.528Z,100012.39
2022-10-01T09:00:19.082Z,100006.39
2022-10-01T09:01:17.950Z,100005.16
2022-10-01T09:02:27.590Z,100003.59
2022-10-01T09:03:19.956Z,100002.78
2022-10-01T09:04:20.477Z,100000.11
2022-10-01T09:26:24.953Z,99995.18
2022-10-01T09:27:27.558Z,99996.91
2022-10-01T09:28:32.295Z,99994.52
2022-10-01T09:30:32.887Z,99998.7
2022-10-01T09:31:41.260Z,99994.7
2022-10-01T09:33:42.070Z,99996.59
2022-10-01T09:34:43.156Z,100002.42
2022-10-01T09:40:55.587Z,99995.72
2022-10-01T09:41:54.065Z,99998.25
2022-10-01T09:42:54.507Z,99991.68
2022-10-01T09:43:54.680Z,99991.48
2022-10-01T09:44:56.593Z,99995.77
2022-10-01T09:45:56.415Z,99992.75
2022-10-01T09:46:56.594Z,99990.29
2022-10-01T09:50:06.537Z,99987.8
2022-10-01T09:56:31.209Z,99980.96
2022-10-01T10:00:37.873Z,99974.23
2022-10-01T10:02:49.164Z,99973.45
2022-10-01T10:03:54.198Z,99970.61
2022-10-01T10:04:46.837Z,99967.62
2022-10-01T10:05:48.083Z,99970.25
2022-10-01T10:06:47.878Z,99966.83
2022-10-01T10:07:54.995Z,99961.8
2022-10-01T10:08:53.721Z,99968.22
2022-10-01T10:09:53.341Z,99964.23
2022-10-01T10:11:06.491Z,99965.55
2022-10-01T10:11:54.055Z,99963.2
2022-10-01T10:13:01.495Z,99963.85
2022-10-01T10:14:02.477Z,99962.82
2022-10-01T10:15:08.514Z,99959.45
2022-10-01T10:17:11.801Z,99954.91
2022-10-01T10:18:12.413Z,99960.56
2022-10-01T10:19:15.496Z,99952.12
2022-10-01T10:25:24.663Z,99948.27
2022-10-01T10:26:31.812Z,99952.94
2022-10-01T10:27:28.422Z,99949.8
2022-10-01T10:28:26.729Z,99951.16
2022-10-01T10:29:34.918Z,99946.71
2022-10-01T10:30:28.570Z,99941.81
2022-10-01T10:31:40.009Z,99943.16
2022-10-01T10:32:33.005Z,99941.26
2022-10-01T10:33:33.115Z,99938.83
2022-10-01T10:34:37.575Z,99938.82
2022-10-01T10:35:35.475Z,99941.84
2022-10-01T10:36:37.468Z,99939.52
2022-10-01T10:37:43.669Z,99939.08
2022-10-01T10:38:41.434Z,99934.56
2022-10-01T10:39:46.296Z,99938.48
2022-10-01T10:40:45.749Z,99933.83
2022-10-01T10:41:47.278Z,99933.89
2022-10-01T10:42:50.422Z,99930.33
2022-10-01T10:43:49.261Z,99928.95
2022-10-01T10:44:51.314Z,99925.58
2022-10-01T10:45:52.004Z,99929.36
2022-10-01T10:46:53.044Z,99924.59
2022-10-01T10:47:52.654Z,99919.6
2022-10-01T10:49:59.950Z,99918.55
2022-10-01T10:51:02.607Z,99919.51
2022-10-01T10:52:01.567Z,99917.24
2022-10-01T10:53:11.125Z,99915.97
2022-10-01T10:54:17.266Z,99918.73
2022-10-01T10:56:07.464Z,99916.31
2022-10-01T10:59:12.496Z,99909.59
2022-10-01T11:01:20.886Z,99906.75
2022-10-01T11:02:20.744Z,99907.44
2022-10-01T11:03:22.749Z,99905.96
2022-10-01T11:05:26.208Z,99900.83
2022-10-01T11:06:23.799Z,99902.19
2022-10-01T11:07:27.072Z,99900.92
2022-10-01T11:08:27.444Z,99899.45
2022-10-01T11:27:23.476Z,99879.64
2022-10-01T11:39:44.296Z,99862.99
2022-10-01T11:42:46.672Z,99860.64
2022-10-01T11:54:13.767Z,99854.29
2022-10-01T11:57:17.875Z,99858.61
2022-10-01T12:00:26.604Z,99856.3
2022-10-01T12:05:34.965Z,99847.89
2022-10-01T12:08:44.369Z,99851.8
2022-10-01T12:13:58.529Z,99838.59
2022-10-01T12:15:05.522Z,99840.96
2022-10-01T12:16:00.667Z,99837.73
2022-10-01T12:23:32.749Z,99835.84
2022-10-01T12:24:30.756Z,99831.88
2022-10-01T12:25:42.125Z,99828.98
2022-10-01T12:51:48.751Z,99816.93
2022-10-01T13:13:43.918Z,99789.92
2022-10-01T13:14:45.429Z,99790.25
2022-10-01T13:15:47.411Z,99790.06
2022-10-01T13:31:16.527Z,99771.76
2022-10-01T13:33:25.675Z,99770.62
2022-10-01T13:36:33.305Z,99765.52
2022-10-01T13:37:39.025Z,99765.53
2022-10-01T13:39:39.531Z,99764.53
2022-10-01T13:40:37.444Z,99760.95
2022-10-01T13:41:39.868Z,99762.42
2022-10-01T13:42:45.190Z,99760.59
2022-10-01T13:43:49.869Z,99760.7
2022-10-01T13:44:53.354Z,99760.48
2022-10-01T13:45:55.218Z,99759.95
2022-10-01T13:50:19.844Z,99755.89
2022-10-01T13:51:10.552Z,99754.58
2022-10-01T13:52:20.184Z,99749.48
2022-10-01T13:53:18.851Z,99747.69
2022-10-01T13:54:28.692Z,99751.52
2022-10-01T13:55:30.021Z,99745.81
2022-10-01T13:56:35.572Z,99746.92
2022-10-01T13:59:35.481Z,99746.96
2022-10-01T14:00:33.961Z,99747.52
2022-10-01T14:01:42.164Z,99747.98
2022-10-01T14:02:37.813Z,99749.84
2022-10-01T14:04:43.803Z,99747.02
2022-10-01T14:05:43.299Z,99748.23
2022-10-01T14:06:51.103Z,99747.98
2022-10-01T14:07:46.429Z,99744.52
2022-10-01T14:08:54.555Z,99747.06
2022-10-01T14:09:51.319Z,99742.59
2022-10-01T14:12:58.201Z,99742.05
2022-10-01T14:16:07.544Z,99738.01
2022-10-01T14:17:09.238Z,99733.66
2022-10-01T14:19:10.521Z,99731.19
2022-10-01T14:36:49.244Z,99725.6
2022-10-01T14:37:47.091Z,99726.53
2022-10-01T14:38:47.280Z,99731.27
2022-10-01T14:40:54.295Z,99726.95
2022-10-01T14:41:54.335Z,99725.75
2022-10-01T14:42:58.086Z,99728.14
2022-10-01T14:43:55.947Z,99726.81
2022-10-01T14:44:55.920Z,99725.67
2022-10-01T14:46:02.562Z,99721.29
2022-10-01T14:48:05.954Z,99725.14
2022-10-01T14:49:04.746Z,99725.42
2022-10-01T14:53:17.822Z,99718.77
2022-10-01T14:54:15.521Z,99719.34
2022-10-01T14:55:18.136Z,99721.87
2022-10-01T14:56:16.895Z,99716.38
2022-10-01T14:57:25.010Z,99721.68
2022-10-01T15:01:25.453Z,99714.56
2022-10-01T15:02:27.403Z,99713.88
2022-10-01T15:03:26.180Z,99716.2
2022-10-01T15:04:26.336Z,99716.23
2022-10-01T15:06:29.166Z,99713.41
2022-10-01T15:07:35.103Z,99716.08
2022-10-01T15:09:36.961Z,99715.44
2022-10-01T15:10:40.579Z,99716.2
2022-10-01T15:11:44.215Z,99716.67
2022-10-01T15:12:43.234Z,99717.7
2022-10-01T15:13:44.902Z,99715.55
2022-10-01T15:14:44.671Z,99713.88
2022-10-01T15:15:43.971Z,99713.11
2022-10-01T15:16:44.263Z,99713.58
2022-10-01T15:17:44.703Z,99712.05
2022-10-01T15:18:49.925Z,99710.55
2022-10-01T15:19:51.166Z,99706.55
2022-10-01T15:21:56.716Z,99703.41
2022-10-01T15:23:00.413Z,99702.2
2022-10-01T15:23:59.793Z,99703.97
2022-10-01T15:25:01.847Z,99699.41
2022-10-01T15:26:02.676Z,99702.2
2022-10-01T15:27:00.930Z,99706.73
2022-10-01T15:28:01.401Z,99705.46
2022-10-01T15:31:07.569Z,99708.49
2022-10-01T15:32:07.732Z,99706.93
2022-10-01T15:35:14.005Z,99705.67
2022-10-01T15:38:20.010Z,99706.88
2022-10-01T15:41:32.346Z,99707.3
2022-10-01T15:42:33.089Z,99705.38
2022-10-01T15:45:37.710Z,99701.41
2022-10-01T15:46:37.977Z,99705.2
2022-10-01T15:47:40.492Z,99701.8
2022-10-01T15:48:38.822Z,99703.73
2022-10-01T15:49:39.079Z,99702.73
2022-10-01T15:50:40.326Z,99703.83
2022-10-01T15:53:42.779Z,99703.33
2022-10-01T15:54:45.205Z,99699.53
2022-10-01T15:55:47.815Z,99700.39
2022-10-01T15:56:47.627Z,99697.41
2022-10-01T15:57:45.913Z,99698.8
2022-10-01T15:58:53.566Z,99697.77
2022-10-01T15:59:53.579Z,99696.7
2022-10-01T16:01:56.616Z,99694.42
2022-10-01T16:02:58.201Z,99689.16
2022-10-01T16:06:01.089Z,99687.71
2022-10-01T16:06:59.873Z,99686.7
2022-10-01T16:08:00.480Z,99691.07
2022-10-01T16:16:30.978Z,99683.2
2022-10-01T16:18:26.277Z,99682.2
2022-10-01T16:19:31.388Z,99683.44
2022-10-01T16:21:40.111Z,99681.53
2022-10-01T16:22:36.226Z,99680.76
2022-10-01T16:23:42.164Z,99682.72
2022-10-01T16:24:43.489Z,99683.16
2022-10-01T16:25:44.197Z,99684.16
2022-10-01T16:26:38.976Z,99681.16
2022-10-01T16:28:42.428Z,99681.36
2022-10-01T16:29:42.520Z,99683.12
2022-10-01T16:30:43.136Z,99677.58
2022-10-01T16:31:45.402Z,99679.41
2022-10-01T16:32:45.190Z,99677.16
2022-10-01T16:33:44.290Z,99677.05
2022-10-01T16:34:44.488Z,99679.2
2022-10-01T16:35:48.187Z,99677.74
2022-10-01T16:36:46.136Z,99677.52
2022-10-01T16:37:47.582Z,99679.22
2022-10-01T16:38:47.789Z,99677.98
2022-10-01T16:39:47.390Z,99677.31
2022-10-01T16:40:47.511Z,99675.41
2022-10-01T16:42:06.224Z,99680.77
2022-10-01T16:42:52.430Z,99681.52
2022-10-01T16:43:52.950Z,99678.87
2022-10-01T16:44:52.227Z,99682.27
2022-10-01T16:45:52.221Z,99679.02
2022-10-01T16:46:52.659Z,99681.66
2022-10-01T16:47:53.885Z,99681.09
2022-10-01T16:48:53.491Z,99680.09
2022-10-01T16:49:53.905Z,99678.58
2022-10-01T16:50:54.317Z,99676.62
2022-10-01T16:51:54.736Z,99675.2
2022-10-01T16:52:56.474Z,99673.94
2022-10-01T16:53:55.500Z,99677.86